createdAt,value
2019-04-01T00:00:01.144Z,102525.46
2019-04-01T00:05:05.313Z,102522.37
2019-04-01T00:10:08.793Z,102524.21
2019-04-01T00:15:11.786Z,102526.83
2019-04-01T00:20:15.371Z,102533.33
2019-04-01T00:25:18.307Z,102523.33
2019-04-01T00:30:21.520Z,102524.57
2019-04-01T00:35:24.724Z,102522.36
2019-04-01T00:40:27.929Z,102530.03
2019-04-01T00:45:31.865Z,102523.02
2019-04-01T00:50:35.100Z,102531.75
2019-04-01T00:55:38.407Z,102529.32
2019-04-01T01:00:41.292Z,102529.28
2019-04-01T01:05:44.491Z,102525.03
2019-04-01T01:10:47.704Z,102531.66
2019-04-01T01:15:51.208Z,102529.35
2019-04-01T01:20:54.745Z,102532.63
2019-04-01T01:25:57.594Z,102538.00
2019-04-01T01:31:00.704Z,102537.61
2019-04-01T01:36:03.864Z,102535.31
2019-04-01T01:41:06.764Z,102530.02
2019-04-01T01:46:09.975Z,102529.24
2019-04-01T01:51:12.829Z,102534.28
2019-04-01T01:56:16.300Z,102517.04
2019-04-01T02:01:19.343Z,102521.66
2019-04-01T02:06:22.863Z,102512.25
2019-04-01T02:11:26.004Z,102527.26
2019-04-01T02:16:29.228Z,102510.58
2019-04-01T02:21:32.449Z,102506.06
2019-04-01T02:26:37.576Z,102508.50
2019-04-01T02:31:40.802Z,102497.63
2019-04-01T02:36:44.020Z,102500.26
2019-04-01T02:41:47.514Z,102501.58
2019-04-01T02:46:50.442Z,102509.22
2019-04-01T02:51:52.940Z,102506.17
2019-04-01T02:56:56.442Z,102503.53
2019-04-01T03:01:59.313Z,102503.54
2019-04-01T03:07:02.495Z,102506.84
2019-04-01T03:12:05.976Z,102511.85
2019-04-01T03:17:09.198Z,102511.84
2019-04-01T03:22:12.709Z,102500.70
2019-04-01T03:27:17.457Z,102502.84
2019-04-01T03:32:20.773Z,102505.84
2019-04-01T03:37:23.575Z,102516.88
2019-04-01T03:42:25.924Z,102515.41
2019-04-01T03:47:29.146Z,102509.08
2019-04-01T03:52:32.139Z,102517.95
2019-04-01T03:57:35.392Z,102509.98
2019-04-01T04:02:38.666Z,102513.63
2019-04-01T04:07:41.508Z,102516.88
2019-04-01T04:12:44.653Z,102526.31
2019-04-01T04:17:48.077Z,102517.75
2019-04-01T04:22:50.728Z,102520.25
2019-04-01T04:27:53.208Z,102528.22
2019-04-01T04:32:56.070Z,102522.08
2019-04-01T04:37:59.014Z,102531.97
2019-04-01T04:43:02.127Z,102524.78
2019-04-01T04:48:05.072Z,102533.08
2019-04-01T04:53:08.210Z,102528.98
2019-04-01T04:58:11.145Z,102536.59
2019-04-01T05:03:14.322Z,102536.02
2019-04-01T05:08:17.248Z,102536.73
2019-04-01T05:13:20.790Z,102542.75
2019-04-01T05:18:24.418Z,102533.88
2019-04-01T05:23:28.605Z,102549.29
2019-04-01T05:28:33.950Z,102545.17
2019-04-01T05:33:54.565Z,102557.02
2019-04-01T05:38:45.941Z,102553.33
2019-04-01T05:43:49.437Z,102563.25
2019-04-01T05:48:52.834Z,102559.22
2019-04-01T05:53:56.425Z,102560.02
2019-04-01T05:58:59.654Z,102554.95
2019-04-01T06:04:02.149Z,102555.97
2019-04-01T06:09:07.531Z,102561.41
2019-04-01T06:14:10.753Z,102562.09
2019-04-01T06:19:13.613Z,102565.69
2019-04-01T06:24:16.117Z,102558.92
2019-04-01T06:29:19.246Z,102560.79
2019-04-01T06:34:23.902Z,102562.58
2019-04-01T06:39:27.112Z,102550.44
2019-04-01T06:44:30.067Z,102560.80
2019-04-01T06:49:33.325Z,102563.70
2019-04-01T06:54:36.879Z,102566.98
2019-04-01T06:59:40.060Z,102563.75
2019-04-01T07:04:43.260Z,102565.37
2019-04-01T07:09:46.147Z,102567.47
2019-04-01T07:14:49.180Z,102573.05
2019-04-01T07:19:52.379Z,102577.41
2019-04-01T07:24:55.285Z,102581.87
2019-04-01T07:29:58.741Z,102586.70
2019-04-01T07:35:02.343Z,102594.52
2019-04-01T07:40:06.041Z,102590.70
2019-04-01T07:45:09.773Z,102594.70
2019-04-01T07:50:13.640Z,102583.42
2019-04-01T07:55:16.796Z,102582.75
2019-04-01T08:00:20.518Z,102584.45
2019-04-01T08:05:26.075Z,102583.27
2019-04-01T08:10:31.450Z,102580.67
2019-04-01T08:15:34.848Z,102577.15
2019-04-01T08:20:39.703Z,102570.19
2019-04-01T08:25:43.151Z,102580.83
2019-04-01T08:30:46.627Z,102572.94
2019-04-01T08:35:52.240Z,102579.84
2019-04-01T08:40:55.616Z,102574.20
2019-04-01T08:45:59.359Z,102579.22
2019-04-01T08:51:04.598Z,102572.45
2019-04-01T08:56:07.910Z,102575.92
2019-04-01T09:01:11.618Z,102572.89
2019-04-01T09:06:15.069Z,102579.14
2019-04-01T09:11:19.141Z,102564.91
2019-04-01T09:16:22.863Z,102562.25
2019-04-01T09:21:25.772Z,102558.83
2019-04-01T09:26:28.602Z,102561.23
2019-04-01T09:31:31.565Z,102560.62
2019-04-01T09:36:34.822Z,102558.22
2019-04-01T09:41:38.368Z,102554.29
2019-04-01T09:46:41.608Z,102542.98
2019-04-01T09:51:48.815Z,102539.48
2019-04-01T09:56:49.249Z,102537.47
2019-04-01T10:01:52.597Z,102533.12
2019-04-01T10:06:55.946Z,102530.90
2019-04-01T10:11:58.834Z,102509.95
2019-04-01T10:17:02.082Z,102506.83
2019-04-01T10:22:06.254Z,102506.93
2019-04-01T10:27:09.589Z,102504.00
2019-04-01T10:32:13.087Z,102505.02
2019-04-01T10:37:16.831Z,102492.95
2019-04-01T10:42:20.307Z,102489.61
2019-04-01T10:47:23.551Z,102484.53
2019-04-01T10:52:26.960Z,102476.47
2019-04-01T10:57:30.405Z,102469.59
2019-04-01T11:02:33.368Z,102466.48
2019-04-01T11:07:36.728Z,102459.58
2019-04-01T11:12:39.620Z,102460.98
2019-04-01T11:17:43.904Z,102454.73
2019-04-01T11:22:49.860Z,102445.31
2019-04-01T11:27:53.287Z,102439.99
2019-04-01T11:32:56.427Z,102433.22
2019-04-01T11:37:59.733Z,102426.45
2019-04-01T11:43:04.956Z,102424.44
2019-04-01T11:48:07.090Z,102417.11
2019-04-01T11:53:09.961Z,102402.80
2019-04-01T11:58:13.687Z,102391.09
2019-04-01T12:03:16.928Z,102390.96
2019-04-01T12:08:20.307Z,102383.17
2019-04-01T12:13:23.752Z,102371.36
2019-04-01T12:18:26.924Z,102365.34
2019-04-01T12:23:30.706Z,102365.44
2019-04-01T12:28:36.413Z,102354.45
2019-04-01T12:33:38.740Z,102351.86
2019-04-01T12:38:41.751Z,102339.03
2019-04-01T12:43:45.288Z,102337.82
2019-04-01T12:48:48.683Z,102323.05
2019-04-01T12:53:51.696Z,102317.05
2019-04-01T12:58:54.690Z,102311.41
2019-04-01T13:03:58.589Z,102282.16
2019-04-01T13:09:01.419Z,102287.34
2019-04-01T13:14:05.340Z,102279.40
2019-04-01T13:19:08.555Z,102267.72
2019-04-01T13:24:11.970Z,102265.06
2019-04-01T13:29:15.261Z,102248.83
2019-04-01T13:34:20.242Z,102238.73
2019-04-01T13:39:23.361Z,102229.25
2019-04-01T13:44:36.619Z,102219.98
2019-04-01T13:49:32.295Z,102200.27
2019-04-01T13:54:35.209Z,102193.34
2019-04-01T13:59:49.111Z,102184.70
2019-04-01T14:04:43.493Z,102189.52
2019-04-01T14:09:46.903Z,102177.37
2019-04-01T14:14:49.814Z,102169.27
2019-04-01T14:19:53.005Z,102163.86
2019-04-01T14:24:56.338Z,102151.50
2019-04-01T14:29:59.247Z,102145.94
2019-04-01T14:35:02.608Z,102137.44
2019-04-01T14:40:07.741Z,102123.86
2019-04-01T14:45:11.588Z,102116.76
2019-04-01T14:50:14.862Z,102098.83
2019-04-01T14:55:17.329Z,102088.17
2019-04-01T15:00:20.086Z,102083.73
2019-04-01T15:05:23.659Z,102078.67
2019-04-01T15:10:27.319Z,102067.97
2019-04-01T15:15:30.060Z,102067.78
2019-04-01T15:20:33.381Z,102055.34
2019-04-01T15:25:38.227Z,102044.23
2019-04-01T15:30:41.266Z,102024.86
2019-04-01T15:35:44.469Z,102029.28
2019-04-01T15:40:47.849Z,102017.57
2019-04-01T15:45:51.256Z,102011.08
2019-04-01T15:50:54.683Z,102005.83
2019-04-01T15:55:57.899Z,101994.66
2019-04-01T16:01:01.269Z,101988.63
2019-04-01T16:06:07.606Z,101972.64
2019-04-01T16:11:10.369Z,101973.18
2019-04-01T16:16:14.669Z,101973.20
2019-04-01T16:21:17.892Z,101975.47
2019-04-01T16:26:21.291Z,101955.61
2019-04-01T16:31:26.636Z,101954.86
2019-04-01T16:36:29.923Z,101954.67
2019-04-01T16:41:33.538Z,101944.77
2019-04-01T16:46:36.721Z,101938.80
2019-04-01T16:51:41.364Z,101943.16
2019-04-01T16:56:45.131Z,101946.41
2019-04-01T17:01:48.617Z,101946.14
2019-04-01T17:06:51.810Z,101943.94
2019-04-01T17:11:55.290Z,101937.37
2019-04-01T17:16:58.991Z,101933.30
2019-04-01T17:22:03.075Z,101919.60
2019-04-01T17:27:13.139Z,101911.97
2019-04-01T17:32:16.220Z,101917.08
2019-04-01T17:37:19.774Z,101912.84
2019-04-01T17:42:23.954Z,101916.34
2019-04-01T17:47:28.099Z,101915.84
2019-04-01T17:52:31.305Z,101907.83
2019-04-01T17:57:35.539Z,101915.98
2019-04-01T18:02:38.766Z,101907.70
2019-04-01T18:07:44.234Z,101916.79
2019-04-01T18:12:49.473Z,101915.08
2019-04-01T18:17:53.957Z,101907.15
2019-04-01T18:22:58.290Z,101902.85
2019-04-01T18:28:02.965Z,101906.79
2019-04-01T18:33:06.994Z,101899.70
2019-04-01T18:38:10.516Z,101902.30
2019-04-01T18:43:13.979Z,101908.52
2019-04-01T18:48:19.288Z,101899.88
2019-04-01T18:53:28.522Z,101896.55
2019-04-01T18:58:32.604Z,101900.03
2019-04-01T19:03:35.323Z,101898.03
2019-04-01T19:08:41.373Z,101906.88
2019-04-01T19:13:44.962Z,101906.12
2019-04-01T19:18:47.791Z,101901.98
2019-04-01T19:24:01.058Z,101898.26
2019-04-01T19:29:09.967Z,101888.45
2019-04-01T19:34:13.694Z,101886.31
2019-04-01T19:39:16.980Z,101877.90
2019-04-01T19:44:20.349Z,101880.37
2019-04-01T19:49:23.581Z,101865.61
2019-04-01T19:54:34.002Z,101857.95
2019-04-01T19:59:37.787Z,101851.58
2019-04-01T20:04:41.441Z,101852.26
2019-04-01T20:09:46.293Z,101852.63
2019-04-01T20:14:50.827Z,101845.33
2019-04-01T20:19:54.207Z,101840.78
2019-04-01T20:24:57.782Z,101832.97
2019-04-01T20:30:01.399Z,101834.91
2019-04-01T20:35:05.789Z,101825.34
2019-04-01T20:40:09.566Z,101822.04
2019-04-01T20:45:13.609Z,101817.80
2019-04-01T20:50:17.234Z,101808.14
2019-04-01T20:55:19.810Z,101800.88
2019-04-01T21:00:22.798Z,101800.75
2019-04-01T21:05:26.860Z,101801.69
2019-04-01T21:10:29.611Z,101801.08
2019-04-01T21:15:32.481Z,101791.95
2019-04-01T21:20:35.456Z,101791.55
2019-04-01T21:25:38.608Z,101790.02
2019-04-01T21:30:42.136Z,101770.29
2019-04-01T21:35:45.372Z,101762.82
2019-04-01T21:40:48.250Z,101757.48
2019-04-01T21:45:51.827Z,101756.88
2019-04-01T21:50:54.815Z,101741.80
2019-04-01T21:55:58.095Z,101741.17
2019-04-01T22:01:01.784Z,101733.37
2019-04-01T22:06:05.114Z,101728.08
2019-04-01T22:11:08.744Z,101716.41
2019-04-01T22:16:11.903Z,101705.67
2019-04-01T22:21:15.155Z,101700.39
2019-04-01T22:26:18.717Z,101697.36
2019-04-01T22:31:21.935Z,101689.33
2019-04-01T22:36:31.061Z,101685.00
2019-04-01T22:41:29.928Z,101678.97
2019-04-01T22:46:34.707Z,101685.50
2019-04-01T22:51:38.139Z,101674.23
2019-04-01T22:56:41.602Z,101658.11
2019-04-01T23:01:45.042Z,101661.50
2019-04-01T23:06:48.061Z,101648.09
2019-04-01T23:11:50.915Z,101648.19
2019-04-01T23:16:53.544Z,101640.70
2019-04-01T23:21:57.097Z,101635.45
2019-04-01T23:26:59.873Z,101630.67
2019-04-01T23:32:03.403Z,101628.80
2019-04-01T23:37:06.324Z,101627.23
2019-04-01T23:42:09.192Z,101629.22
2019-04-01T23:47:12.576Z,101609.50
2019-04-01T23:52:15.736Z,101599.80
2019-04-01T23:57:18.536Z,101591.95
